Time;durP1;ratioP1;P1;durP2;ratioP2;P2;SDS_P1;SDS_P2;PMS_P1;PMS_P2;Temp;Humidity;BMP_temperature;BMP_pressure;BME280_temperature;BME280_humidity;BME280_pressure;Samples;Min_cycle;Max_cycle;Signal;HPM_P1;HPM_P2
2022/08/19 00:01:36;;;;;;;1.73;1.63;;;24.10;55.30;;;;;;6232315;28;20630;-69
2022/08/19 00:04:37;;;;;;;1.50;1.40;;;24.10;55.30;;;;;;6218306;28;20384;-69
2022/08/19 00:07:38;;;;;;;1.48;1.38;;;24.10;55.30;;;;;;6236434;28;20029;-69
2022/08/19 00:10:38;;;;;;;1.55;1.40;;;24.10;56.00;;;;;;6240451;28;20084;-69
2022/08/19 00:13:39;;;;;;;1.85;1.50;;;24.10;55.30;;;;;;6242242;28;20306;-69
2022/08/19 00:16:41;;;;;;;1.48;1.38;;;24.10;55.30;;;;;;6233288;28;20046;-69
2022/08/19 00:19:42;;;;;;;1.40;1.30;;;24.10;55.40;;;;;;6217932;28;20037;-69
2022/08/19 00:22:47;;;;;;;1.23;1.13;;;24.10;55.30;;;;;;6234994;28;20021;-69
2022/08/19 00:25:48;;;;;;;1.30;1.20;;;24.10;55.30;;;;;;6241895;28;20108;-69
2022/08/19 00:28:48;;;;;;;1.50;1.40;;;24.10;55.30;;;;;;6217470;28;20032;-69
2022/08/19 00:31:54;;;;;;;1.40;1.20;;;24.10;55.30;;;;;;6225980;28;20293;-69
2022/08/19 00:34:55;;;;;;;1.52;1.30;;;24.10;55.30;;;;;;6243346;28;20025;-69
2022/08/19 00:37:56;;;;;;;1.30;1.20;;;24.10;55.30;;;;;;6226015;28;20033;-69
2022/08/19 00:40:56;;;;;;;1.60;1.23;;;24.10;55.30;;;;;;6218736;28;20030;-69
2022/08/19 00:44:09;;;;;;;1.48;1.30;;;24.10;55.30;;;;;;6243180;28;20488;-69
2022/08/19 00:47:11;;;;;;;1.73;1.15;;;24.10;55.40;;;;;;6233534;28;20026;-68
2022/08/19 00:50:14;;;;;;;1.30;1.20;;;24.10;55.30;;;;;;6218518;28;20485;-69
2022/08/19 00:53:18;;;;;;;1.42;1.33;;;24.10;55.30;;;;;;6235088;28;20022;-69
2022/08/19 00:56:19;;;;;;;1.13;1.02;;;24.10;55.40;;;;;;6241311;28;20073;-69
2022/08/19 00:59:20;;;;;;;1.17;1.08;;;24.10;55.30;;;;;;6217190;28;20052;-69
2022/08/19 01:02:21;;;;;;;1.38;1.20;;;24.10;55.30;;;;;;6226566;28;20025;-69
2022/08/19 01:05:28;;;;;;;1.38;1.27;;;24.10;55.40;;;;;;6242800;28;20266;-69
2022/08/19 01:08:29;;;;;;;1.58;1.35;;;24.10;55.30;;;;;;6225593;28;20372;-69
2022/08/19 01:11:34;;;;;;;1.30;1.20;;;24.10;55.30;;;;;;6229768;28;20029;-69
2022/08/19 01:14:37;;;;;;;1.30;1.20;;;24.10;55.30;;;;;;6221674;28;20109;-69
2022/08/19 01:17:40;;;;;;;1.35;1.25;;;24.10;55.30;;;;;;6231796;28;20488;-69
2022/08/19 01:20:42;;;;;;;1.35;1.25;;;24.10;55.30;;;;;;6246954;28;20078;-69
2022/08/19 01:23:44;;;;;;;1.45;1.35;;;24.10;55.30;;;;;;6228766;28;20057;-69
2022/08/19 01:26:46;;;;;;;1.20;1.10;;;24.10;55.30;;;;;;6222231;28;20058;-69
2022/08/19 01:29:47;;;;;;;1.63;1.40;;;24.10;55.40;;;;;;6246796;28;20113;-69
2022/08/19 01:32:49;;;;;;;1.15;1.05;;;24.10;55.40;;;;;;6238777;28;20487;-69
2022/08/19 01:35:51;;;;;;;1.50;1.27;;;24.10;55.30;;;;;;6222396;28;20383;-69
2022/08/19 01:38:51;;;;;;;1.45;1.25;;;24.10;55.30;;;;;;6237633;28;20044;-68
2022/08/19 01:41:54;;;;;;;1.40;1.30;;;24.10;55.40;;;;;;6247675;28;20480;-69
2022/08/19 01:44:54;;;;;;;1.30;1.20;;;24.10;55.40;;;;;;6221783;28;20065;-69
2022/08/19 01:47:55;;;;;;;1.27;1.17;;;24.10;55.40;;;;;;6229161;28;20368;-69
2022/08/19 01:50:56;;;;;;;1.45;1.35;;;24.10;55.40;;;;;;6247274;28;20489;-68
2022/08/19 01:53:57;;;;;;;1.70;1.58;;;24.10;55.40;;;;;;6231323;28;20096;-69
2022/08/19 01:57:03;;;;;;;1.77;1.50;;;24.10;55.40;;;;;;6221507;28;20065;-69
2022/08/19 02:00:10;;;;;;;1.52;1.30;;;24.10;55.40;;;;;;6244554;28;20114;-69
2022/08/19 02:03:11;;;;;;;1.25;1.15;;;24.10;55.40;;;;;;6213854;28;20036;-69
2022/08/19 02:06:12;;;;;;;1.50;1.40;;;24.10;55.40;;;;;;6246328;28;20022;-69
2022/08/19 02:09:12;;;;;;;1.50;1.30;;;24.10;55.40;;;;;;6232140;28;20030;-69
2022/08/19 02:12:14;;;;;;;1.20;1.10;;;24.10;55.40;;;;;;6238777;28;20786;-69
2022/08/19 02:15:14;;;;;;;1.20;1.10;;;24.10;55.40;;;;;;6223678;28;20058;-69
2022/08/19 02:18:15;;;;;;;1.30;1.20;;;24.10;55.40;;;;;;6226980;28;20074;-68
2022/08/19 02:21:17;;;;;;;1.50;1.40;;;24.10;55.40;;;;;;6245851;28;20102;-69
2022/08/19 02:24:18;;;;;;;1.20;1.10;;;24.10;55.40;;;;;;6232225;28;20132;-69
2022/08/19 02:27:19;;;;;;;1.40;1.30;;;24.10;55.40;;;;;;6221711;28;20036;-69
2022/08/19 02:30:20;;;;;;;1.60;1.50;;;24.10;55.40;;;;;;6240717;28;20411;-69
2022/08/19 02:33:21;;;;;;;1.40;1.30;;;24.10;55.40;;;;;;6241896;28;20685;-69
2022/08/19 02:36:23;;;;;;;1.40;1.30;;;24.10;55.40;;;;;;6221518;28;20038;-69
2022/08/19 02:39:24;;;;;;;1.48;1.35;;;24.10;55.40;;;;;;6232837;28;20041;-69
2022/08/19 02:42:25;;;;;;;1.13;1.02;;;24.10;55.40;;;;;;6245633;28;20021;-68
2022/08/19 02:45:26;;;;;;;1.55;1.38;;;24.10;55.40;;;;;;6225291;28;20026;-69
2022/08/19 02:48:26;;;;;;;1.23;1.13;;;24.10;55.40;;;;;;6223821;28;20025;-69
2022/08/19 02:51:33;;;;;;;1.33;1.20;;;24.00;55.40;;;;;;6245658;28;20452;-69
2022/08/19 02:54:34;;;;;;;1.50;1.40;;;24.10;55.40;;;;;;6233431;28;20026;-69
2022/08/19 02:57:35;;;;;;;1.20;1.10;;;24.00;55.30;;;;;;6220526;28;20109;-69
2022/08/19 03:00:42;;;;;;;1.20;1.10;;;24.10;55.40;;;;;;6235439;28;20037;-69
2022/08/19 03:03:42;;;;;;;1.30;1.20;;;24.10;55.40;;;;;;6202470;28;20095;-69
2022/08/19 03:06:46;;;;;;;1.20;1.10;;;24.10;55.40;;;;;;6245328;28;20101;-69
2022/08/19 03:09:47;;;;;;;1.20;1.10;;;24.10;55.40;;;;;;6233740;28;20504;-69
2022/08/19 03:12:47;;;;;;;1.40;1.30;;;24.10;55.40;;;;;;6242443;28;20028;-69
2022/08/19 03:15:48;;;;;;;1.38;1.27;;;24.10;55.40;;;;;;6226327;28;20040;-69
2022/08/19 03:18:49;;;;;;;1.17;1.08;;;24.10;55.40;;;;;;6222019;28;20117;-69
2022/08/19 03:21:51;;;;;;;1.40;1.20;;;24.10;55.50;;;;;;6245167;28;20036;-69
2022/08/19 03:24:53;;;;;;;1.30;1.20;;;24.10;55.40;;;;;;6237020;28;20081;-68
2022/08/19 03:27:53;;;;;;;1.80;1.40;;;24.10;55.40;;;;;;6244117;28;20423;-69
2022/08/19 03:31:00;;;;;;;1.63;1.42;;;24.10;55.40;;;;;;6242738;28;20060;-69
2022/08/19 03:34:00;;;;;;;1.27;1.17;;;24.10;55.80;;;;;;6241752;28;20021;-69
2022/08/19 03:37:07;;;;;;;1.35;1.20;;;24.00;55.40;;;;;;6219887;28;20033;-69
2022/08/19 03:40:08;;;;;;;1.13;1.02;;;24.00;55.40;;;;;;6229445;28;20506;-69
2022/08/19 03:43:08;;;;;;;1.17;1.08;;;24.10;55.50;;;;;;6244206;28;20036;-69
2022/08/19 03:46:11;;;;;;;1.35;1.15;;;24.10;55.50;;;;;;6226712;28;20061;-69
2022/08/19 03:49:12;;;;;;;1.20;1.10;;;24.00;55.40;;;;;;6220857;28;20686;-69
2022/08/19 03:52:13;;;;;;;1.10;1.00;;;24.00;55.40;;;;;;6242932;28;20075;-69
2022/08/19 03:55:14;;;;;;;1.60;1.42;;;24.10;55.50;;;;;;6235542;28;20226;-70
2022/08/19 03:58:15;;;;;;;1.70;1.10;;;24.00;55.40;;;;;;6219621;28;20087;-69
2022/08/19 04:01:19;;;;;;;1.30;1.20;;;24.00;55.40;;;;;;6220834;28;20072;-69
2022/08/19 04:04:21;;;;;;;1.73;1.48;;;24.10;55.50;;;;;;6195027;28;20084;-69
2022/08/19 04:07:21;;;;;;;1.23;1.13;;;24.10;55.50;;;;;;6243823;28;20041;-69
2022/08/19 04:10:23;;;;;;;1.25;1.15;;;24.00;55.40;;;;;;6237649;28;20056;-69
2022/08/19 04:13:24;;;;;;;1.25;1.15;;;24.00;55.40;;;;;;6244107;28;20459;-69
2022/08/19 04:16:28;;;;;;;1.30;1.20;;;24.00;55.40;;;;;;6228149;28;20026;-69
2022/08/19 04:19:30;;;;;;;1.52;1.40;;;24.00;55.40;;;;;;6218866;28;20041;-69
2022/08/19 04:22:31;;;;;;;1.38;1.27;;;24.00;55.40;;;;;;6243457;28;20502;-69
2022/08/19 04:25:37;;;;;;;1.10;0.95;;;24.00;55.40;;;;;;6236259;28;20049;-69
2022/08/19 04:28:37;;;;;;;1.30;1.20;;;24.10;55.50;;;;;;6219091;28;20045;-69
2022/08/19 04:31:39;;;;;;;1.33;1.23;;;24.00;55.40;;;;;;6233414;28;20029;-69
2022/08/19 04:34:39;;;;;;;1.45;1.35;;;24.10;55.50;;;;;;6243792;28;20083;-69
2022/08/19 04:37:40;;;;;;;1.20;1.10;;;24.00;55.40;;;;;;6220037;28;20018;-69
2022/08/19 04:44:12;;;;;;;1.23;1.13;;;24.00;55.40;;;;;;6244078;28;20029;-69
2022/08/19 04:47:13;;;;;;;1.10;1.00;;;24.00;55.40;;;;;;6225508;28;20542;-69
2022/08/19 04:50:14;;;;;;;1.17;1.08;;;24.00;55.40;;;;;;6224731;28;20079;-69
2022/08/19 04:53:15;;;;;;;1.25;1.15;;;24.00;55.40;;;;;;6248490;28;20492;-69
2022/08/19 04:56:17;;;;;;;1.27;1.17;;;24.00;55.40;;;;;;6239118;28;20026;-69
2022/08/19 05:03:16;;;;;;;1.10;1.00;;;24.00;55.40;;;;;;6200086;28;20030;-68
2022/08/19 05:06:20;;;;;;;1.27;1.17;;;24.00;55.40;;;;;;6214366;28;20033;-69
2022/08/19 05:09:21;;;;;;;1.20;1.10;;;24.00;56.10;;;;;;6248261;28;20013;-69
2022/08/19 05:12:22;;;;;;;1.40;1.30;;;24.00;55.40;;;;;;6244647;28;20033;-69
2022/08/19 05:15:22;;;;;;;1.50;1.20;;;24.00;55.40;;;;;;6247877;28;20049;-69
2022/08/19 05:25:09;;;;;;;1.30;1.20;;;24.00;55.40;;;;;;6223084;28;20046;-69
2022/08/19 05:28:10;;;;;;;1.02;1.00;;;24.00;55.40;;;;;;6223117;28;20029;-69
2022/08/19 05:31:10;;;;;;;1.15;1.05;;;24.00;55.50;;;;;;6225879;28;20142;-69
2022/08/19 05:34:11;;;;;;;1.17;1.08;;;24.00;55.50;;;;;;6246086;28;20499;-69
2022/08/19 05:37:12;;;;;;;1.20;1.10;;;24.00;55.50;;;;;;6234600;28;20022;-69
2022/08/19 05:40:13;;;;;;;1.17;1.05;;;24.00;55.50;;;;;;6222461;28;20030;-69
2022/08/19 05:43:15;;;;;;;1.10;1.00;;;24.00;55.50;;;;;;6241973;28;20025;-69
2022/08/19 05:46:18;;;;;;;1.20;1.10;;;24.00;55.40;;;;;;6245425;28;20030;-69
2022/08/19 05:49:22;;;;;;;1.60;1.15;;;24.00;55.50;;;;;;6222843;28;20604;-69
2022/08/19 05:52:22;;;;;;;1.30;1.20;;;24.00;55.50;;;;;;6230968;28;20028;-69
2022/08/19 05:55:23;;;;;;;1.42;1.33;;;24.00;55.50;;;;;;6226127;28;20038;-69
2022/08/19 05:58:24;;;;;;;1.17;1.08;;;24.00;55.50;;;;;;6217980;28;20029;-69
2022/08/19 06:01:26;;;;;;;0.90;0.90;;;24.00;55.50;;;;;;6206139;28;21735;-69
2022/08/19 06:04:27;;;;;;;0.90;0.90;;;24.10;55.60;;;;;;6237553;28;20511;-69
2022/08/19 06:07:28;;;;;;;1.20;1.10;;;24.10;55.60;;;;;;6225940;28;20030;-68
2022/08/19 06:10:29;;;;;;;1.45;1.10;;;24.00;55.50;;;;;;6224102;28;20026;-68
2022/08/19 06:13:30;;;;;;;1.02;0.95;;;24.00;55.50;;;;;;6230338;28;20017;-69
2022/08/19 06:16:34;;;;;;;1.10;1.00;;;24.00;55.50;;;;;;6248425;28;20025;-69
2022/08/19 06:19:36;;;;;;;1.30;1.20;;;24.00;55.50;;;;;;6207987;28;20515;-69
2022/08/19 06:22:39;;;;;;;1.10;1.00;;;24.00;55.50;;;;;;6226379;28;20030;-69
2022/08/19 06:25:39;;;;;;;1.23;1.13;;;24.00;55.50;;;;;;6222702;28;20073;-70
2022/08/19 06:28:46;;;;;;;1.30;1.20;;;24.00;55.60;;;;;;6229861;28;20038;-69
2022/08/19 06:31:49;;;;;;;1.20;1.10;;;24.00;55.70;;;;;;6236495;28;20028;-70
2022/08/19 06:34:50;;;;;;;1.60;1.27;;;24.10;55.80;;;;;;6248378;28;20025;-70
2022/08/19 06:37:52;;;;;;;1.33;1.23;;;24.10;55.80;;;;;;6245859;28;20044;-70
2022/08/19 06:41:03;;;;;;;1.85;1.30;;;24.20;56.00;;;;;;6248071;28;20033;-70
2022/08/19 06:44:05;;;;;;;1.40;1.20;;;24.20;56.60;;;;;;6230293;28;20029;-69
2022/08/19 06:47:08;;;;;;;2.85;1.00;;;24.20;57.00;;;;;;6223178;28;20125;-70
2022/08/19 06:50:09;;;;;;;1.95;1.20;;;24.20;57.00;;;;;;6222895;28;20069;-69
2022/08/19 06:53:10;;;;;;;1.08;0.98;;;24.20;57.50;;;;;;6224741;28;20083;-69
2022/08/19 06:56:10;;;;;;;1.30;1.20;;;24.20;56.10;;;;;;6228603;28;20033;-69
2022/08/19 06:59:15;;;;;;;4.60;1.38;;;24.20;56.20;;;;;;6229998;28;20033;-69
2022/08/19 07:02:15;;;;;;;1.38;1.20;;;24.20;56.20;;;;;;6215573;28;20033;-69
2022/08/19 07:05:17;;;;;;;1.20;1.08;;;24.20;56.20;;;;;;6246526;28;20108;-69
2022/08/19 07:08:17;;;;;;;1.20;1.10;;;24.20;56.20;;;;;;6238875;28;20495;-69
2022/08/19 07:11:19;;;;;;;1.52;1.27;;;24.20;56.20;;;;;;6221444;28;20053;-69
2022/08/19 07:14:23;;;;;;;1.25;1.00;;;24.20;56.30;;;;;;6237232;28;20511;-69
2022/08/19 07:17:24;;;;;;;1.95;1.40;;;24.20;56.30;;;;;;6246228;28;20375;-69
2022/08/19 07:20:25;;;;;;;1.27;1.17;;;24.10;56.30;;;;;;6221455;28;20139;-69
2022/08/19 07:23:25;;;;;;;1.73;1.30;;;24.10;56.30;;;;;;6227533;28;20053;-69
2022/08/19 07:26:29;;;;;;;1.55;1.38;;;24.10;56.30;;;;;;6228747;28;20461;-68
2022/08/19 07:29:32;;;;;;;1.30;1.20;;;24.10;56.40;;;;;;6236972;28;20489;-70
2022/08/19 07:32:33;;;;;;;1.55;1.30;;;24.10;56.30;;;;;;6230762;28;20384;-69
2022/08/19 07:35:33;;;;;;;1.40;1.30;;;24.10;56.30;;;;;;6221104;28;20022;-68
2022/08/19 07:38:34;;;;;;;1.70;1.38;;;24.10;56.30;;;;;;6244383;28;20423;-69
2022/08/19 07:41:36;;;;;;;2.85;1.55;;;24.10;56.30;;;;;;6240045;28;20484;-68
2022/08/19 07:44:38;;;;;;;4.82;1.30;;;24.10;56.30;;;;;;6236775;28;20100;-69
2022/08/19 07:47:40;;;;;;;1.63;1.38;;;24.10;56.30;;;;;;6222889;28;20034;-69
2022/08/19 07:50:40;;;;;;;1.45;1.35;;;24.10;56.30;;;;;;6230804;28;20034;-69
2022/08/19 07:53:43;;;;;;;1.77;1.50;;;24.10;56.30;;;;;;6242280;28;20026;-67
2022/08/19 07:56:43;;;;;;;1.55;1.45;;;24.10;56.30;;;;;;6230953;28;20432;-69
2022/08/19 07:59:44;;;;;;;1.85;1.63;;;24.10;56.30;;;;;;6231544;28;20026;-70
2022/08/19 08:02:45;;;;;;;1.73;1.60;;;24.10;56.30;;;;;;6233040;28;20380;-69
2022/08/19 08:09:12;;;;;;;2.42;1.75;;;24.10;56.30;;;;;;6230635;28;20025;-69
2022/08/19 08:12:19;;;;;;;1.70;1.60;;;24.10;56.30;;;;;;6237482;28;20026;-68
2022/08/19 08:15:20;;;;;;;2.05;1.73;;;24.10;56.40;;;;;;6238278;28;20100;-69
2022/08/19 08:18:20;;;;;;;2.03;1.75;;;24.10;56.30;;;;;;6229801;28;20038;-69
2022/08/19 08:21:21;;;;;;;1.77;1.67;;;24.10;56.30;;;;;;6220813;28;20029;-69
2022/08/19 08:24:22;;;;;;;2.50;2.00;;;24.10;56.50;;;;;;6234594;28;20605;-69
2022/08/19 08:27:23;;;;;;;2.13;1.92;;;24.10;56.60;;;;;;6226376;28;20496;-69
2022/08/19 08:30:26;;;;;;;3.08;1.90;;;24.10;56.50;;;;;;6245140;28;20120;-69
2022/08/19 08:33:29;;;;;;;2.38;2.17;;;24.10;56.70;;;;;;6231270;28;20022;-68
2022/08/19 08:36:33;;;;;;;2.15;1.85;;;24.10;56.70;;;;;;6244507;28;20120;-69
2022/08/19 08:39:34;;;;;;;3.05;2.03;;;24.10;56.70;;;;;;6229448;28;20041;-69
2022/08/19 08:42:42;;;;;;;4.03;2.33;;;24.10;56.60;;;;;;6239264;28;20520;-69
2022/08/19 08:45:49;;;;;;;3.92;2.78;;;24.10;56.70;;;;;;6237003;28;20580;-69
2022/08/19 08:49:02;;;;;;;2.92;2.20;;;24.10;56.80;;;;;;6230105;28;20488;-69
2022/08/19 08:52:13;;;;;;;3.13;2.20;;;24.10;56.50;;;;;;6220557;28;20108;-69
2022/08/19 08:55:24;;;;;;;3.80;2.35;;;24.10;56.70;;;;;;6217574;28;20026;-68
2022/08/19 08:58:50;;;;;;;2.42;2.22;;;24.10;56.70;;;;;;6242678;28;20559;-69
2022/08/19 09:01:51;;;;;;;2.38;2.17;;;24.10;56.70;;;;;;6219439;28;20018;-69
2022/08/19 09:04:52;;;;;;;2.28;2.08;;;24.10;56.70;;;;;;6208047;28;20032;-69
2022/08/19 09:08:18;;;;;;;2.80;2.30;;;24.10;56.70;;;;;;6222180;28;20026;-69
2022/08/19 09:11:56;;;;;;;4.93;2.75;;;24.10;56.70;;;;;;6219431;28;20022;-70
2022/08/19 09:15:04;;;;;;;2.50;2.20;;;24.10;56.70;;;;;;6225241;28;20030;-69
2022/08/19 09:18:06;;;;;;;2.72;2.05;;;24.10;56.60;;;;;;6221655;28;20026;-69
2022/08/19 09:21:08;;;;;;;3.05;2.45;;;24.10;56.70;;;;;;6229372;28;20025;-69
2022/08/19 09:24:09;;;;;;;2.75;2.40;;;24.10;56.70;;;;;;6220619;28;20133;-69
2022/08/19 09:27:09;;;;;;;2.20;1.98;;;24.10;56.70;;;;;;6233039;28;20018;-69
2022/08/19 09:30:26;;;;;;;2.38;2.17;;;24.10;56.80;;;;;;6242788;28;20036;-69
2022/08/19 09:33:26;;;;;;;2.55;2.28;;;24.10;56.80;;;;;;6242528;28;20025;-69
2022/08/19 09:36:35;;;;;;;3.45;2.53;;;24.10;56.80;;;;;;6240072;28;20025;-69
2022/08/19 09:39:38;;;;;;;2.22;2.03;;;24.10;56.70;;;;;;6224633;28;20382;-69
2022/08/19 09:42:39;;;;;;;2.22;2.03;;;24.10;56.60;;;;;;6243984;28;20121;-69
2022/08/19 09:45:40;;;;;;;2.10;1.85;;;24.10;56.70;;;;;;6227366;28;20041;-70
2022/08/19 09:48:42;;;;;;;2.22;2.00;;;24.10;56.60;;;;;;6224644;28;20468;-69
2022/08/19 09:51:42;;;;;;;2.10;1.90;;;24.10;56.70;;;;;;6230686;28;20022;-70
2022/08/19 09:54:43;;;;;;;2.00;1.80;;;24.10;56.60;;;;;;6212516;28;20388;-69
2022/08/19 09:57:43;;;;;;;3.08;2.10;;;24.10;56.60;;;;;;6227792;28;20092;-70
2022/08/19 10:00:46;;;;;;;2.70;2.20;;;24.10;56.60;;;;;;6220508;28;20022;-69
2022/08/19 10:03:50;;;;;;;2.10;1.90;;;24.10;56.70;;;;;;6244800;28;20032;-68
2022/08/19 10:06:55;;;;;;;3.00;2.30;;;24.10;56.60;;;;;;6242387;28;20022;-69
2022/08/19 10:09:56;;;;;;;2.30;1.95;;;24.10;56.60;;;;;;6224670;28;20032;-68
2022/08/19 10:12:57;;;;;;;2.75;2.05;;;24.10;56.60;;;;;;6238770;28;20026;-69
2022/08/19 10:16:05;;;;;;;2.28;2.05;;;24.10;56.60;;;;;;6248573;28;20088;-69
2022/08/19 10:19:06;;;;;;;2.20;2.00;;;24.10;56.50;;;;;;6225143;28;20025;-69
2022/08/19 10:22:06;;;;;;;2.28;2.08;;;24.10;56.50;;;;;;6229472;28;20029;-69
2022/08/19 10:25:07;;;;;;;2.38;2.15;;;24.10;56.60;;;;;;6248513;28;20431;-69
2022/08/19 10:28:11;;;;;;;2.08;1.80;;;24.10;56.60;;;;;;6232681;28;20389;-69
2022/08/19 10:31:20;;;;;;;2.47;1.90;;;24.10;56.50;;;;;;6223828;28;20108;-69
2022/08/19 10:34:20;;;;;;;4.28;1.90;;;24.10;56.50;;;;;;6246930;28;20488;-69
2022/08/19 10:37:21;;;;;;;2.55;2.00;;;24.10;56.50;;;;;;6241980;28;20105;-69
2022/08/19 10:40:21;;;;;;;2.20;1.70;;;24.10;56.50;;;;;;6223541;28;20087;-69
2022/08/19 10:43:23;;;;;;;2.65;2.03;;;24.10;56.50;;;;;;6237045;28;20072;-69
2022/08/19 10:46:26;;;;;;;1.80;1.70;;;24.10;56.50;;;;;;6246599;28;20033;-69
2022/08/19 10:49:26;;;;;;;2.03;1.80;;;24.00;56.30;;;;;;6226121;28;20113;-69
2022/08/19 10:52:33;;;;;;;2.13;1.92;;;24.10;56.50;;;;;;6228005;28;20405;-69
2022/08/19 10:58:54;;;;;;;2.33;2.10;;;24.10;56.40;;;;;;6231721;28;20030;-69
2022/08/19 11:01:59;;;;;;;2.00;1.80;;;24.10;56.40;;;;;;6209931;28;20065;-69
2022/08/19 11:05:00;;;;;;;2.92;2.10;;;24.10;56.40;;;;;;6224600;28;20026;-69
2022/08/19 11:08:01;;;;;;;1.92;1.70;;;24.10;56.40;;;;;;6229583;28;20388;-69
2022/08/19 11:11:03;;;;;;;2.22;1.70;;;24.10;56.40;;;;;;6240490;28;20018;-69
2022/08/19 11:14:04;;;;;;;1.60;1.50;;;24.00;56.30;;;;;;6237568;28;20026;-69
2022/08/19 11:17:06;;;;;;;2.13;1.92;;;24.10;56.40;;;;;;6247135;28;20551;-69
2022/08/19 11:20:08;;;;;;;2.00;1.83;;;24.10;56.40;;;;;;6223758;28;20034;-68
2022/08/19 11:23:09;;;;;;;1.73;1.63;;;24.10;56.40;;;;;;6228685;28;20041;-68
2022/08/19 11:26:09;;;;;;;2.03;1.70;;;24.00;56.30;;;;;;6227774;28;20032;-69
2022/08/19 11:29:13;;;;;;;1.88;1.77;;;24.10;56.40;;;;;;6222051;28;20036;-67
2022/08/19 11:32:14;;;;;;;2.13;1.92;;;24.10;56.40;;;;;;6221036;28;20029;-69
2022/08/19 11:35:17;;;;;;;1.90;1.73;;;24.00;56.30;;;;;;6247010;28;20033;-68
2022/08/19 11:38:18;;;;;;;2.30;2.05;;;24.00;56.30;;;;;;6240680;28;20061;-69
2022/08/19 11:41:22;;;;;;;1.83;1.73;;;24.10;56.40;;;;;;6222162;28;20207;-69
2022/08/19 11:44:23;;;;;;;2.15;1.95;;;24.10;56.30;;;;;;6235590;28;20040;-69
2022/08/19 11:47:26;;;;;;;1.90;1.67;;;24.00;56.30;;;;;;6246164;28;20029;-68
2022/08/19 11:50:26;;;;;;;1.92;1.60;;;24.00;56.30;;;;;;6225189;28;20030;-69
2022/08/19 11:53:29;;;;;;;1.80;1.70;;;24.10;56.40;;;;;;6226154;28;20460;-68
2022/08/19 11:56:30;;;;;;;2.00;1.58;;;24.10;56.30;;;;;;6246113;28;20030;-69
2022/08/19 11:59:31;;;;;;;2.13;1.73;;;24.00;56.30;;;;;;6233367;28;20041;-69
2022/08/19 12:02:31;;;;;;;1.88;1.63;;;24.10;56.30;;;;;;6221274;28;20030;-69
2022/08/19 12:05:33;;;;;;;1.65;1.55;;;24.00;56.30;;;;;;6241488;28;20056;-69
2022/08/19 12:08:33;;;;;;;1.88;1.65;;;24.00;56.30;;;;;;6242122;28;20018;-69
2022/08/19 12:11:35;;;;;;;1.90;1.73;;;24.00;56.30;;;;;;6232903;28;20045;-69
2022/08/19 12:14:35;;;;;;;2.10;1.90;;;24.00;56.30;;;;;;6234264;28;20473;-69
2022/08/19 12:17:36;;;;;;;1.70;1.60;;;24.10;56.30;;;;;;6221317;28;20072;-68
2022/08/19 12:20:39;;;;;;;2.05;1.80;;;24.00;56.30;;;;;;6255776;28;20048;-69
2022/08/19 12:23:41;;;;;;;1.90;1.77;;;24.00;56.30;;;;;;6242460;28;20053;-69
2022/08/19 12:26:42;;;;;;;2.03;1.75;;;24.00;56.20;;;;;;6219865;28;20049;-69
2022/08/19 12:29:43;;;;;;;2.15;1.80;;;24.00;56.30;;;;;;6221742;28;20026;-68
2022/08/19 12:32:44;;;;;;;1.42;1.33;;;24.00;56.30;;;;;;6206394;28;20018;-69
2022/08/19 12:35:46;;;;;;;2.00;1.45;;;24.00;56.30;;;;;;6217382;28;20027;-68
2022/08/19 12:38:47;;;;;;;1.88;1.73;;;24.00;56.30;;;;;;6252744;28;20125;-68
2022/08/19 12:41:48;;;;;;;1.67;1.50;;;24.00;56.30;;;;;;6219396;28;20030;-68
2022/08/19 12:44:50;;;;;;;1.60;1.42;;;24.00;56.30;;;;;;6244119;28;20029;-69
2022/08/19 12:47:52;;;;;;;1.85;1.70;;;24.00;56.30;;;;;;6243123;28;20014;-69
2022/08/19 12:50:53;;;;;;;1.67;1.58;;;24.10;56.40;;;;;;6239729;28;20465;-70
2022/08/19 12:53:54;;;;;;;1.90;1.80;;;24.10;56.30;;;;;;6219799;28;20045;-69
2022/08/19 12:56:55;;;;;;;1.98;1.75;;;24.10;56.40;;;;;;6242671;28;20049;-69
2022/08/19 12:59:55;;;;;;;1.80;1.70;;;24.00;56.30;;;;;;6236220;28;20030;-69
2022/08/19 13:02:56;;;;;;;1.75;1.52;;;24.10;56.40;;;;;;6218721;28;20018;-69
2022/08/19 13:05:57;;;;;;;1.88;1.63;;;24.10;56.40;;;;;;6235123;28;20018;-70
2022/08/19 13:08:57;;;;;;;1.77;1.67;;;24.10;56.50;;;;;;6244191;28;20029;-68
2022/08/19 13:12:00;;;;;;;3.75;1.65;;;24.10;56.50;;;;;;6230562;28;20025;-69
2022/08/19 13:15:01;;;;;;;5.60;1.63;;;24.10;56.50;;;;;;6242277;28;20427;-69
2022/08/19 13:18:02;;;;;;;2.13;1.90;;;24.00;56.40;;;;;;6237456;28;20029;-69
2022/08/19 13:21:07;;;;;;;2.75;1.77;;;24.10;56.50;;;;;;6234259;28;20388;-70
2022/08/19 13:24:08;;;;;;;1.83;1.65;;;24.10;56.50;;;;;;6245029;28;20053;-69
2022/08/19 13:27:09;;;;;;;2.75;2.03;;;24.10;56.50;;;;;;6236092;28;20033;-70
2022/08/19 13:33:32;;;;;;;4.85;1.92;;;24.10;56.50;;;;;;6248218;28;20029;-70
2022/08/19 13:36:34;;;;;;;4.65;1.85;;;24.10;56.70;;;;;;6231618;28;20034;-69
2022/08/19 13:39:35;;;;;;;2.67;2.17;;;24.10;56.80;;;;;;6245222;28;20037;-69
2022/08/19 13:42:36;;;;;;;2.20;2.00;;;24.10;56.80;;;;;;6227627;28;20026;-69
2022/08/19 13:45:36;;;;;;;2.00;1.80;;;24.10;56.80;;;;;;6233482;28;20504;-69
2022/08/19 13:48:37;;;;;;;2.40;2.20;;;24.10;56.90;;;;;;6235805;28;20021;-70
2022/08/19 13:51:39;;;;;;;2.40;1.80;;;24.10;56.80;;;;;;6233064;28;20097;-69
2022/08/19 13:54:40;;;;;;;2.20;2.00;;;24.10;56.80;;;;;;6242412;28;20507;-69
2022/08/19 13:57:41;;;;;;;2.17;1.95;;;24.10;56.80;;;;;;6228561;28;20030;-70
2022/08/19 14:00:45;;;;;;;2.45;2.00;;;24.10;56.80;;;;;;6241716;28;20038;-69
2022/08/19 14:03:46;;;;;;;2.13;1.92;;;24.10;56.70;;;;;;6234064;28;20484;-69
2022/08/19 14:06:46;;;;;;;2.63;2.42;;;24.10;56.70;;;;;;6233580;28;20032;-70
2022/08/19 14:09:47;;;;;;;3.08;2.00;;;24.10;56.70;;;;;;6223048;28;20108;-69
2022/08/19 14:12:48;;;;;;;2.10;1.90;;;24.00;56.60;;;;;;6222309;28;20025;-69
2022/08/19 14:15:49;;;;;;;3.47;2.00;;;24.00;56.60;;;;;;6227487;28;20129;-70
2022/08/19 14:18:51;;;;;;;2.25;1.92;;;24.10;56.70;;;;;;6247645;28;20087;-70
2022/08/19 14:21:51;;;;;;;2.20;2.00;;;24.00;56.60;;;;;;6234609;28;20044;-70
2022/08/19 14:24:52;;;;;;;2.20;1.95;;;24.10;56.70;;;;;;6221540;28;20746;-69
2022/08/19 14:27:53;;;;;;;2.75;2.20;;;24.10;56.60;;;;;;6243739;28;20076;-69
2022/08/19 14:30:54;;;;;;;3.78;3.00;;;24.10;56.60;;;;;;6243543;28;20037;-69
2022/08/19 14:33:54;;;;;;;2.55;2.35;;;24.10;56.80;;;;;;6228562;28;20488;-69
2022/08/19 14:36:55;;;;;;;2.63;2.30;;;24.10;56.70;;;;;;6235995;28;20069;-69
2022/08/19 14:39:56;;;;;;;4.38;2.50;;;24.10;56.80;;;;;;6237298;28;20057;-69
2022/08/19 14:43:03;;;;;;;2.53;2.33;;;24.10;56.80;;;;;;6226746;28;20030;-69
2022/08/19 14:46:05;;;;;;;2.55;2.35;;;24.10;56.80;;;;;;6242548;28;21513;-69
2022/08/19 14:49:06;;;;;;;2.80;2.30;;;24.00;56.70;;;;;;6229151;28;20078;-69
2022/08/19 14:52:07;;;;;;;2.63;2.13;;;24.10;56.80;;;;;;6222903;28;20026;-69
2022/08/19 14:55:08;;;;;;;2.45;2.25;;;24.10;56.70;;;;;;6220797;28;20068;-69
2022/08/19 14:58:08;;;;;;;2.63;2.17;;;24.00;56.60;;;;;;6234046;28;20036;-69
2022/08/19 15:01:10;;;;;;;2.25;2.03;;;24.00;56.60;;;;;;6235935;28;20026;-68
2022/08/19 15:04:11;;;;;;;6.25;2.58;;;24.00;56.60;;;;;;6241003;28;20472;-69
2022/08/19 15:07:12;;;;;;;6.55;2.50;;;24.10;58.20;;;;;;6230364;28;20030;-68
2022/08/19 15:10:14;;;;;;;24.77;2.50;;;24.20;58.20;;;;;;6233145;28;20026;-71
2022/08/19 15:13:15;;;;;;;11.93;2.58;;;24.20;58.60;;;;;;6229487;28;20049;-70
2022/08/19 15:16:17;;;;;;;9.10;2.85;;;24.20;58.00;;;;;;6242531;28;20025;-70
2022/08/19 15:19:18;;;;;;;5.95;2.28;;;24.20;58.00;;;;;;6225999;28;20037;-69
2022/08/19 15:22:19;;;;;;;3.35;2.17;;;24.20;57.90;;;;;;6238774;28;20096;-69
2022/08/19 15:25:20;;;;;;;4.13;2.30;;;24.10;57.70;;;;;;6221696;28;20049;-69
2022/08/19 15:28:25;;;;;;;8.07;2.50;;;24.10;57.70;;;;;;6237808;28;20056;-70
2022/08/19 15:31:27;;;;;;;2.65;2.28;;;24.10;57.50;;;;;;6246127;28;20025;-70
2022/08/19 15:34:29;;;;;;;4.20;2.22;;;24.10;57.50;;;;;;6223260;28;20037;-69
2022/08/19 15:37:29;;;;;;;2.75;2.00;;;24.10;57.40;;;;;;6239111;28;20068;-71
2022/08/19 15:40:30;;;;;;;2.60;2.00;;;24.10;57.30;;;;;;6230470;28;20033;-70
2022/08/19 15:43:31;;;;;;;4.43;2.10;;;24.10;57.20;;;;;;6231425;28;20033;-70
2022/08/19 15:46:33;;;;;;;2.97;1.80;;;24.10;57.30;;;;;;6238412;28;20029;-70
2022/08/19 15:49:34;;;;;;;3.13;2.38;;;24.10;57.30;;;;;;6223090;28;20075;-68
2022/08/19 15:52:35;;;;;;;2.33;2.10;;;24.10;57.30;;;;;;6240132;28;20483;-70
2022/08/19 15:55:43;;;;;;;3.10;2.35;;;24.10;57.20;;;;;;6225281;28;20020;-70
2022/08/19 16:08:48;;;;;;;3.20;2.17;;;24.10;57.20;;;;;;6234567;28;20037;-70
2022/08/19 16:11:49;;;;;;;2.58;2.10;;;24.10;57.30;;;;;;6231450;28;20025;-70
2022/08/19 16:14:50;;;;;;;2.40;2.00;;;24.10;57.30;;;;;;6241617;28;20037;-70
2022/08/19 16:17:50;;;;;;;2.20;1.98;;;24.10;57.20;;;;;;6238293;28;20022;-70
2022/08/19 16:20:51;;;;;;;2.95;2.65;;;24.10;57.20;;;;;;6218446;28;20492;-69
2022/08/19 16:23:52;;;;;;;1.90;1.70;;;24.10;57.20;;;;;;6219481;28;20413;-70